Time;durP1;ratioP1;P1;durP2;ratioP2;P2;SDS_P1;SDS_P2;PMS_P1;PMS_P2;Temp;Humidity;BMP_temperature;BMP_pressure;BME280_temperature;BME280_humidity;BME280_pressure;Samples;Min_cycle;Max_cycle;Signal;HPM_P1;HPM_P2
2022/07/16 00:02:55;;;;;;;6.45;1.80;;;15.60;99.90;;;;;;5077657;28;20452;-86
2022/07/16 00:05:21;;;;;;;3.58;2.10;;;15.60;99.90;;;;;;5073751;28;20040;-87
2022/07/16 00:07:47;;;;;;;5.03;1.77;;;15.60;99.90;;;;;;5071491;28;20058;-86
2022/07/16 00:10:13;;;;;;;2.97;1.73;;;15.60;99.90;;;;;;5072975;28;20044;-86
2022/07/16 00:12:38;;;;;;;5.15;1.80;;;15.60;99.90;;;;;;5055417;28;20134;-87
2022/07/16 00:15:05;;;;;;;4.45;1.80;;;15.60;99.90;;;;;;5072537;28;20086;-88
2022/07/16 00:17:34;;;;;;;4.40;1.90;;;15.70;99.90;;;;;;5090365;28;20471;-87
2022/07/16 00:19:59;;;;;;;6.25;1.63;;;15.70;99.90;;;;;;5105412;28;20487;-88
2022/07/16 00:22:25;;;;;;;5.50;1.65;;;15.70;99.90;;;;;;5073585;28;20651;-87
2022/07/16 00:24:51;;;;;;;2.33;1.40;;;15.80;99.90;;;;;;5106351;28;20078;-87
2022/07/16 00:27:17;;;;;;;5.35;1.50;;;15.80;99.90;;;;;;5091763;28;20176;-86
2022/07/16 00:29:42;;;;;;;4.40;2.20;;;15.80;99.90;;;;;;5072637;28;20056;-86
2022/07/16 00:32:08;;;;;;;5.20;2.25;;;15.80;99.90;;;;;;5107401;28;20051;-85
2022/07/16 00:34:34;;;;;;;5.72;2.33;;;15.80;99.90;;;;;;5108239;28;20051;-85
2022/07/16 00:36:59;;;;;;;5.10;2.17;;;16.90;99.90;;;;;;5072623;28;20079;-86
2022/07/16 00:39:28;;;;;;;2.97;2.28;;;15.70;99.90;;;;;;5073819;28;20035;-86
2022/07/16 00:41:54;;;;;;;9.43;2.05;;;15.60;99.90;;;;;;5088996;28;20359;-86
2022/07/16 00:44:19;;;;;;;2.83;1.90;;;15.60;99.90;;;;;;5091054;28;20044;-87
2022/07/16 00:46:47;;;;;;;5.43;1.45;;;15.50;99.90;;;;;;5105903;28;20459;-86
2022/07/16 00:49:14;;;;;;;3.83;1.50;;;15.40;99.90;;;;;;5089617;28;20373;-87
2022/07/16 00:51:51;;;;;;;2.33;1.20;;;15.40;99.90;;;;;;5090073;28;20043;-87
2022/07/16 00:54:17;;;;;;;2.78;1.13;;;15.40;99.90;;;;;;5072202;28;20079;-87
2022/07/16 00:56:43;;;;;;;3.90;1.00;;;15.30;99.90;;;;;;5089864;28;20136;-87
2022/07/16 00:59:10;;;;;;;4.53;1.08;;;15.30;99.90;;;;;;5054762;28;20213;-88
2022/07/16 01:01:36;;;;;;;2.38;1.20;;;15.30;99.90;;;;;;5090333;28;20046;-87
2022/07/16 01:04:04;;;;;;;2.60;0.68;;;15.40;99.90;;;;;;5055619;28;20396;-87
2022/07/16 01:06:31;;;;;;;2.03;0.55;;;15.20;99.90;;;;;;5090340;28;20047;-88
2022/07/16 01:08:58;;;;;;;6.57;0.70;;;15.20;99.90;;;;;;5096116;28;20047;-87
2022/07/16 01:11:26;;;;;;;3.20;0.88;;;15.20;99.90;;;;;;5078574;28;20039;-87
2022/07/16 01:13:52;;;;;;;4.63;0.80;;;15.20;99.90;;;;;;5089824;28;20043;-87
2022/07/16 01:16:19;;;;;;;3.80;0.80;;;15.20;99.90;;;;;;5070696;28;20190;-87
2022/07/16 01:18:46;;;;;;;2.03;0.75;;;15.20;99.90;;;;;;5089903;28;20092;-87
2022/07/16 01:21:16;;;;;;;1.55;0.50;;;15.20;99.90;;;;;;5089093;28;20395;-87
2022/07/16 01:23:45;;;;;;;4.00;0.77;;;15.20;99.90;;;;;;5071885;28;20048;-88
2022/07/16 01:26:11;;;;;;;3.00;0.68;;;15.20;99.90;;;;;;5090293;28;20047;-86
2022/07/16 01:28:37;;;;;;;1.40;0.50;;;15.20;99.90;;;;;;5088881;28;20078;-88
2022/07/16 01:31:02;;;;;;;5.53;1.35;;;16.00;99.90;;;;;;5090378;28;20388;-87
2022/07/16 01:33:31;;;;;;;4.22;0.80;;;15.10;99.90;;;;;;5054997;28;20047;-88
2022/07/16 01:36:00;;;;;;;3.50;0.55;;;15.20;99.90;;;;;;5091063;28;20052;-88
2022/07/16 01:38:27;;;;;;;3.55;0.98;;;15.10;99.90;;;;;;5105413;28;20040;-87
2022/07/16 01:40:53;;;;;;;3.40;0.63;;;15.10;99.90;;;;;;5072166;28;20050;-88
2022/07/16 01:43:25;;;;;;;3.45;0.63;;;15.10;99.90;;;;;;5090069;28;20047;-88
2022/07/16 01:45:52;;;;;;;6.37;0.80;;;15.10;99.90;;;;;;5088021;28;20037;-88
2022/07/16 01:48:19;;;;;;;4.88;0.90;;;16.00;99.90;;;;;;5090103;28;20043;-87
2022/07/16 01:50:47;;;;;;;3.00;0.60;;;15.60;99.90;;;;;;5088257;28;20035;-88
2022/07/16 01:53:13;;;;;;;5.80;0.75;;;14.90;99.90;;;;;;5073898;28;20131;-87
2022/07/16 01:55:39;;;;;;;3.97;0.80;;;15.10;99.90;;;;;;5089398;28;20103;-88
2022/07/16 01:58:13;;;;;;;3.53;0.65;;;15.10;99.90;;;;;;5090206;28;20479;-88
2022/07/16 02:00:41;;;;;;;2.13;1.05;;;15.10;99.90;;;;;;5090576;28;20035;-87
2022/07/16 02:03:07;;;;;;;4.40;0.93;;;15.80;99.90;;;;;;5089186;28;20051;-87
2022/07/16 02:05:34;;;;;;;5.18;0.93;;;15.10;99.90;;;;;;5093327;28;20046;-87
2022/07/16 02:07:59;;;;;;;4.60;0.85;;;15.00;99.90;;;;;;5092922;28;20047;-88
2022/07/16 02:10:25;;;;;;;1.67;0.90;;;15.00;99.90;;;;;;5077853;28;20516;-87
2022/07/16 02:12:52;;;;;;;1.52;0.63;;;15.00;99.90;;;;;;5076652;28;20652;-87
2022/07/16 02:15:18;;;;;;;1.65;0.88;;;15.00;99.90;;;;;;5109582;28;20082;-88
2022/07/16 02:17:44;;;;;;;3.38;1.38;;;15.20;99.90;;;;;;5110586;28;20055;-88
2022/07/16 02:20:11;;;;;;;2.50;0.75;;;14.90;99.90;;;;;;5058491;28;20039;-87
2022/07/16 02:22:38;;;;;;;3.17;0.70;;;14.80;99.90;;;;;;5061543;28;20131;-88
2022/07/16 02:25:05;;;;;;;1.25;0.60;;;14.80;99.90;;;;;;5092149;28;20514;-88
2022/07/16 02:27:31;;;;;;;4.25;0.50;;;14.70;99.90;;;;;;5111806;28;20063;-87
2022/07/16 02:29:58;;;;;;;12.68;0.80;;;14.60;99.90;;;;;;5077739;28;20229;-88
2022/07/16 02:32:24;;;;;;;2.85;0.55;;;14.70;99.90;;;;;;5061027;28;20328;-88
2022/07/16 02:34:49;;;;;;;5.13;0.77;;;14.60;99.90;;;;;;5094383;28;20394;-87
2022/07/16 02:37:15;;;;;;;6.25;0.80;;;14.50;99.90;;;;;;5075701;28;20108;-88
2022/07/16 02:39:41;;;;;;;1.92;0.70;;;14.40;99.90;;;;;;5078232;28;20044;-88
2022/07/16 02:42:06;;;;;;;2.80;0.90;;;14.40;99.90;;;;;;5058823;28;20131;-87
2022/07/16 02:44:32;;;;;;;2.40;0.80;;;14.40;99.90;;;;;;5061254;28;20075;-88
2022/07/16 02:46:58;;;;;;;7.57;0.90;;;14.30;99.90;;;;;;5076371;28;20075;-88
2022/07/16 02:49:24;;;;;;;6.00;0.82;;;14.30;99.90;;;;;;5082456;28;20061;-89
2022/07/16 02:51:49;;;;;;;1.58;0.73;;;14.30;99.90;;;;;;5082890;28;20099;-89
2022/07/16 02:54:15;;;;;;;4.90;1.30;;;14.20;99.90;;;;;;5082221;28;20136;-88
2022/07/16 02:56:41;;;;;;;3.03;1.00;;;15.20;99.90;;;;;;5083669;28;20042;-89
2022/07/16 02:59:06;;;;;;;3.78;1.20;;;14.40;99.90;;;;;;5080389;28;20046;-88
2022/07/16 03:01:32;;;;;;;10.07;1.25;;;14.00;99.90;;;;;;5083336;28;20043;-88
2022/07/16 03:03:58;;;;;;;2.83;1.17;;;14.00;99.90;;;;;;5109774;28;20073;-89
2022/07/16 03:06:24;;;;;;;2.97;1.00;;;13.90;99.90;;;;;;5061613;28;20035;-88
2022/07/16 03:08:50;;;;;;;2.35;0.65;;;14.50;99.90;;;;;;5059146;28;20040;-88
2022/07/16 03:11:16;;;;;;;3.97;1.05;;;13.80;99.90;;;;;;5077012;28;20047;-88
2022/07/16 03:13:42;;;;;;;3.38;1.17;;;13.50;99.90;;;;;;5080319;28;20176;-88
2022/07/16 03:16:08;;;;;;;8.55;1.58;;;13.80;99.90;;;;;;5078476;28;20039;-88
2022/07/16 03:18:34;;;;;;;1.48;0.90;;;13.80;99.90;;;;;;5097407;28;20046;-89
2022/07/16 03:21:00;;;;;;;5.60;1.13;;;13.50;99.90;;;;;;5077420;28;20044;-87
2022/07/16 03:23:25;;;;;;;3.67;1.35;;;13.70;99.90;;;;;;5079916;28;20102;-89
2022/07/16 03:25:51;;;;;;;3.38;1.63;;;13.70;99.90;;;;;;5079093;28;20130;-89
2022/07/16 03:28:17;;;;;;;4.78;1.27;;;13.70;99.90;;;;;;5078833;28;20048;-87
2022/07/16 03:30:43;;;;;;;1.77;0.70;;;13.70;99.90;;;;;;5062148;28;20055;-88
2022/07/16 03:33:10;;;;;;;7.35;1.23;;;13.70;99.90;;;;;;5061496;28;20035;-88
2022/07/16 03:35:36;;;;;;;4.72;1.33;;;13.30;99.90;;;;;;5080905;28;20073;-89
2022/07/16 03:40:46;;;;;;;3.50;1.20;;;13.70;99.90;;;;;;5098220;28;20089;-88
2022/07/16 03:43:12;;;;;;;4.75;1.17;;;13.80;99.90;;;;;;5094434;28;20047;-88
2022/07/16 03:45:38;;;;;;;5.40;1.73;;;13.90;99.90;;;;;;5076812;28;20048;-88
2022/07/16 03:48:04;;;;;;;4.25;1.50;;;13.90;99.90;;;;;;5078506;28;20446;-88
2022/07/16 03:50:30;;;;;;;5.22;1.50;;;13.90;99.90;;;;;;5091635;28;20039;-88
2022/07/16 03:52:55;;;;;;;2.47;1.17;;;13.90;99.90;;;;;;5061581;28;20169;-88
2022/07/16 03:55:21;;;;;;;5.05;1.40;;;13.90;99.90;;;;;;5057519;28;20036;-88
2022/07/16 03:57:47;;;;;;;1.42;0.90;;;14.20;99.90;;;;;;5075957;28;20048;-88
2022/07/16 04:00:13;;;;;;;3.33;1.40;;;14.60;99.90;;;;;;5075118;28;20066;-88
2022/07/16 04:02:39;;;;;;;6.43;1.33;;;13.90;99.90;;;;;;5090351;28;20599;-88
2022/07/16 04:05:06;;;;;;;3.63;1.42;;;13.80;99.90;;;;;;5090054;28;20039;-88
2022/07/16 04:07:32;;;;;;;11.18;1.58;;;13.80;99.90;;;;;;5072172;28;20097;-88
2022/07/16 04:09:58;;;;;;;3.17;1.35;;;13.90;99.90;;;;;;5073355;28;20467;-89
2022/07/16 04:12:23;;;;;;;4.93;1.58;;;13.90;99.90;;;;;;5070820;28;20069;-87
2022/07/16 04:14:51;;;;;;;5.00;1.30;;;13.80;99.90;;;;;;5090033;28;20031;-88
2022/07/16 04:17:16;;;;;;;7.80;1.50;;;13.70;99.90;;;;;;5072077;28;20047;-88
2022/07/16 04:19:42;;;;;;;6.75;1.35;;;13.70;99.90;;;;;;5105791;28;20448;-88
2022/07/16 04:22:08;;;;;;;5.15;1.42;;;13.80;99.90;;;;;;5089035;28;20040;-88
2022/07/16 04:24:33;;;;;;;5.78;1.40;;;13.70;99.90;;;;;;5071074;28;20032;-88
2022/07/16 04:26:59;;;;;;;3.53;1.10;;;14.30;99.90;;;;;;5072766;28;20078;-88
2022/07/16 04:29:25;;;;;;;6.80;1.40;;;13.90;99.90;;;;;;5053954;28;20411;-88
2022/07/16 04:31:51;;;;;;;5.22;1.23;;;13.80;99.90;;;;;;5073185;28;20131;-88
2022/07/16 04:34:16;;;;;;;6.25;1.35;;;13.80;99.90;;;;;;5054939;28;20054;-88
2022/07/16 04:36:42;;;;;;;4.85;0.98;;;13.80;99.90;;;;;;5055165;28;20401;-88
2022/07/16 04:39:08;;;;;;;9.02;1.15;;;13.90;99.90;;;;;;5072499;28;20082;-89
2022/07/16 04:41:34;;;;;;;4.95;1.17;;;14.40;99.90;;;;;;5071013;28;20093;-88
2022/07/16 04:43:59;;;;;;;10.70;1.92;;;14.10;99.90;;;;;;5089652;28;20101;-88
2022/07/16 04:46:25;;;;;;;7.65;1.15;;;14.20;99.90;;;;;;5053650;28;20046;-88
2022/07/16 04:48:51;;;;;;;4.50;0.88;;;14.70;99.90;;;;;;5056203;28;20036;-88
2022/07/16 04:51:16;;;;;;;5.38;0.93;;;14.30;99.90;;;;;;5071846;28;20126;-88
2022/07/16 04:53:42;;;;;;;7.45;1.20;;;14.30;99.90;;;;;;5077629;28;20046;-87
2022/07/16 04:56:08;;;;;;;8.15;1.00;;;14.80;99.90;;;;;;5078772;28;20379;-88
2022/07/16 04:58:33;;;;;;;2.90;0.77;;;14.60;99.90;;;;;;5056436;28;20402;-88
2022/07/16 05:00:59;;;;;;;2.60;0.85;;;14.60;99.90;;;;;;5072573;28;20036;-88
2022/07/16 05:03:24;;;;;;;5.68;0.75;;;14.70;99.90;;;;;;5103691;28;20079;-88
2022/07/16 05:05:50;;;;;;;4.93;0.60;;;14.70;99.90;;;;;;5090003;28;20035;-88
2022/07/16 05:08:16;;;;;;;6.75;0.80;;;14.70;99.90;;;;;;5053796;28;20497;-92
2022/07/16 05:10:42;;;;;;;1.90;0.75;;;14.70;99.90;;;;;;5106203;28;20048;-91
2022/07/16 05:13:10;;;;;;;6.80;0.90;;;14.70;99.90;;;;;;5072201;28;20047;-91
2022/07/16 05:15:36;;;;;;;8.10;0.77;;;14.80;99.90;;;;;;5071294;28;20489;-90
2022/07/16 05:18:02;;;;;;;3.92;1.42;;;14.80;99.90;;;;;;5105367;28;20119;-88
2022/07/16 05:20:29;;;;;;;4.75;0.80;;;14.80;99.90;;;;;;5102848;28;20081;-89
2022/07/16 05:22:55;;;;;;;8.30;0.75;;;15.50;99.90;;;;;;5089622;28;20391;-88
2022/07/16 05:25:20;;;;;;;7.65;0.73;;;15.00;99.90;;;;;;5086290;28;20047;-89
2022/07/16 05:27:46;;;;;;;2.65;0.55;;;15.00;99.90;;;;;;5088647;28;20135;-89
2022/07/16 05:30:12;;;;;;;4.15;0.75;;;15.00;99.90;;;;;;5070378;28;20486;-91
2022/07/16 05:32:39;;;;;;;5.55;0.68;;;15.10;99.90;;;;;;5086765;28;20118;-87
2022/07/16 05:35:05;;;;;;;4.18;0.68;;;15.10;99.90;;;;;;5088039;28;20040;-88
2022/07/16 05:37:31;;;;;;;3.72;0.68;;;15.10;99.90;;;;;;5085913;28;20043;-87
2022/07/16 05:39:56;;;;;;;3.58;0.68;;;15.10;99.90;;;;;;5070860;28;20092;-88
2022/07/16 05:42:25;;;;;;;4.68;0.82;;;15.20;99.90;;;;;;5085648;28;20048;-87
2022/07/16 05:44:51;;;;;;;3.63;0.90;;;15.30;99.90;;;;;;5072832;28;20388;-86
2022/07/16 05:47:17;;;;;;;6.10;0.73;;;15.40;99.90;;;;;;5087837;28;20048;-86
2022/07/16 05:49:42;;;;;;;4.28;0.75;;;15.40;99.90;;;;;;5054357;28;20055;-88
2022/07/16 05:52:08;;;;;;;3.83;0.52;;;15.30;99.90;;;;;;5055717;28;20491;-87
2022/07/16 05:54:33;;;;;;;5.47;1.15;;;15.30;99.90;;;;;;5070450;28;20059;-88
2022/07/16 05:56:59;;;;;;;3.97;0.57;;;15.20;99.90;;;;;;5073493;28;20036;-86
2022/07/16 05:59:25;;;;;;;2.38;0.90;;;15.10;99.90;;;;;;5053656;28;20398;-85
2022/07/16 06:01:51;;;;;;;6.13;0.88;;;15.00;99.90;;;;;;5055703;28;20199;-87
2022/07/16 06:04:17;;;;;;;7.20;0.77;;;15.00;99.90;;;;;;5053562;28;20043;-85
2022/07/16 06:06:42;;;;;;;4.57;0.90;;;15.00;99.90;;;;;;5069974;28;20127;-84
2022/07/16 06:09:08;;;;;;;3.72;0.60;;;15.00;99.90;;;;;;5070067;28;20047;-84
2022/07/16 06:11:34;;;;;;;7.68;0.50;;;15.10;99.90;;;;;;5052687;28;20092;-86
2022/07/16 06:13:59;;;;;;;3.38;0.60;;;15.20;99.90;;;;;;5087937;28;20764;-83
2022/07/16 06:16:25;;;;;;;6.07;0.50;;;15.80;99.90;;;;;;5052109;28;20039;-85
2022/07/16 06:18:51;;;;;;;4.85;0.68;;;15.40;99.90;;;;;;5088245;28;20039;-86
2022/07/16 06:21:16;;;;;;;3.08;0.70;;;15.50;99.90;;;;;;5069583;28;20083;-85
2022/07/16 06:23:42;;;;;;;3.20;0.65;;;15.60;99.90;;;;;;5069959;28;20498;-86
2022/07/16 06:26:08;;;;;;;3.30;0.68;;;15.70;99.90;;;;;;5069758;28;20036;-86
2022/07/16 06:28:34;;;;;;;6.20;0.60;;;15.20;99.90;;;;;;5052138;28;20062;-86
2022/07/16 06:30:59;;;;;;;3.05;0.47;;;15.90;99.90;;;;;;5088102;28;20058;-89
2022/07/16 06:33:25;;;;;;;5.80;0.50;;;16.00;99.90;;;;;;5102038;28;20487;-87
2022/07/16 06:35:51;;;;;;;4.43;0.40;;;16.10;99.90;;;;;;5054866;28;20130;-86
2022/07/16 06:38:16;;;;;;;3.67;0.40;;;16.10;99.90;;;;;;5069289;28;20040;-86
2022/07/16 06:40:44;;;;;;;5.97;0.80;;;16.40;99.90;;;;;;5089181;28;20075;-86
2022/07/16 06:43:10;;;;;;;4.55;0.70;;;16.30;99.90;;;;;;5088452;28;20074;-86
2022/07/16 06:45:43;;;;;;;3.42;0.70;;;16.40;99.90;;;;;;5088703;28;20123;-86
2022/07/16 06:48:09;;;;;;;6.82;0.55;;;16.40;99.90;;;;;;5107027;28;20552;-87
2022/07/16 06:50:35;;;;;;;2.85;0.40;;;17.20;99.90;;;;;;5109624;28;20398;-85
2022/07/16 06:53:00;;;;;;;4.47;0.68;;;16.50;99.90;;;;;;5060265;28;20040;-84
2022/07/16 06:55:26;;;;;;;2.85;0.50;;;16.50;99.90;;;;;;5072760;28;20123;-83
2022/07/16 06:57:52;;;;;;;4.65;0.50;;;16.50;99.90;;;;;;5091584;28;20088;-86
2022/07/16 07:00:18;;;;;;;2.50;0.57;;;16.50;99.90;;;;;;5091154;28;20445;-86
2022/07/16 07:02:43;;;;;;;4.20;0.55;;;16.50;99.90;;;;;;5056993;28;20127;-86
2022/07/16 07:05:09;;;;;;;3.38;0.50;;;16.50;99.90;;;;;;5092046;28;20043;-86
2022/07/16 07:07:35;;;;;;;2.38;0.55;;;16.60;99.90;;;;;;5055989;28;20047;-84
2022/07/16 07:10:01;;;;;;;3.13;0.40;;;16.60;99.90;;;;;;5059063;28;20402;-85
2022/07/16 07:12:26;;;;;;;2.45;0.43;;;16.60;99.90;;;;;;5056114;28;20044;-86
2022/07/16 07:14:52;;;;;;;3.65;0.65;;;16.70;99.90;;;;;;5091283;28;20547;-85
2022/07/16 07:17:18;;;;;;;3.63;0.50;;;16.80;99.90;;;;;;5073732;28;20089;-87
2022/07/16 07:19:44;;;;;;;3.80;0.38;;;16.80;99.90;;;;;;5056269;28;20035;-86
2022/07/16 07:22:09;;;;;;;5.15;0.40;;;16.90;99.90;;;;;;5090958;28;20078;-85
2022/07/16 07:24:35;;;;;;;1.50;0.32;;;17.00;99.90;;;;;;5088854;28;20092;-84
2022/07/16 07:27:01;;;;;;;5.00;0.65;;;17.30;99.90;;;;;;5058168;28;20054;-85
2022/07/16 07:29:26;;;;;;;2.55;0.30;;;17.40;99.90;;;;;;5088363;28;20047;-85
2022/07/16 07:31:52;;;;;;;4.47;0.70;;;17.50;99.90;;;;;;5073975;28;20044;-85
2022/07/16 07:34:18;;;;;;;2.67;0.32;;;17.90;99.90;;;;;;5106788;28;20047;-84
2022/07/16 07:36:44;;;;;;;2.97;0.40;;;17.90;99.90;;;;;;5106196;28;20044;-84
2022/07/16 07:39:09;;;;;;;6.28;0.57;;;17.80;99.90;;;;;;5090462;28;20039;-85
2022/07/16 07:41:35;;;;;;;7.13;0.60;;;17.70;99.90;;;;;;5072335;28;20047;-85
2022/07/16 07:44:01;;;;;;;5.00;0.70;;;17.80;99.90;;;;;;5091441;28;20145;-85
2022/07/16 07:46:27;;;;;;;4.05;0.40;;;18.20;99.90;;;;;;5088862;28;20096;-85
2022/07/16 07:48:52;;;;;;;2.40;0.38;;;17.90;99.90;;;;;;5108216;28;20388;-84
2022/07/16 07:51:18;;;;;;;4.93;0.60;;;17.80;99.90;;;;;;5089258;28;20062;-84
2022/07/16 07:53:44;;;;;;;7.40;0.68;;;17.70;99.90;;;;;;5090308;28;20139;-84
2022/07/16 07:56:10;;;;;;;4.00;0.50;;;17.60;99.90;;;;;;5057667;28;20499;-85
2022/07/16 07:58:37;;;;;;;4.43;1.08;;;17.50;99.90;;;;;;5056581;28;20069;-84
2022/07/16 08:01:03;;;;;;;4.72;0.95;;;17.50;99.90;;;;;;5094073;28;20044;-84
2022/07/16 08:03:29;;;;;;;2.28;0.52;;;17.60;99.90;;;;;;5107250;28;20394;-86
2022/07/16 08:05:55;;;;;;;6.22;0.73;;;17.60;99.90;;;;;;5077407;28;20405;-84
2022/07/16 08:08:20;;;;;;;6.32;1.20;;;17.70;99.90;;;;;;5109007;28;20044;-84
2022/07/16 08:10:46;;;;;;;8.77;0.68;;;17.70;99.90;;;;;;5109711;28;20048;-85
2022/07/16 08:13:12;;;;;;;6.15;0.75;;;17.90;99.90;;;;;;5090848;28;20047;-84
2022/07/16 08:15:38;;;;;;;7.82;0.65;;;17.90;99.90;;;;;;5072514;28;20406;-85
2022/07/16 08:18:04;;;;;;;3.75;0.60;;;18.00;99.90;;;;;;5108392;28;20044;-85
2022/07/16 08:20:30;;;;;;;2.88;0.43;;;18.10;99.90;;;;;;5088117;28;20379;-85
2022/07/16 08:22:55;;;;;;;6.35;0.75;;;18.30;99.90;;;;;;5090665;28;20046;-84
2022/07/16 08:28:06;;;;;;;3.28;0.43;;;18.40;99.90;;;;;;5092981;28;20070;-84
2022/07/16 08:30:32;;;;;;;4.25;0.70;;;18.40;99.90;;;;;;5089991;28;20426;-86
2022/07/16 08:32:57;;;;;;;4.32;0.73;;;18.30;99.90;;;;;;5106284;28;20151;-85
2022/07/16 08:35:23;;;;;;;13.73;1.33;;;18.30;99.90;;;;;;5091679;28;20131;-85
2022/07/16 08:37:49;;;;;;;3.40;1.20;;;18.30;99.90;;;;;;5090140;28;20046;-86
2022/07/16 08:40:21;;;;;;;3.80;0.75;;;18.30;99.90;;;;;;5093106;28;20043;-87
2022/07/16 08:42:47;;;;;;;3.78;0.50;;;18.40;99.90;;;;;;5109040;28;20126;-87
2022/07/16 08:45:15;;;;;;;3.80;0.50;;;18.50;99.90;;;;;;5091102;28;20082;-87
2022/07/16 08:47:40;;;;;;;6.65;0.52;;;18.50;99.90;;;;;;5112611;28;20457;-86
2022/07/16 08:50:10;;;;;;;3.33;0.63;;;18.50;99.90;;;;;;5077012;28;20051;-88
2022/07/16 08:52:40;;;;;;;4.20;0.60;;;18.50;99.90;;;;;;5112111;28;20085;-88
2022/07/16 08:55:07;;;;;;;4.38;0.55;;;18.50;99.90;;;;;;5110342;28;20044;-87
2022/07/16 08:57:35;;;;;;;5.15;0.55;;;18.50;99.90;;;;;;5096553;28;20074;-91
2022/07/16 09:00:00;;;;;;;10.98;1.13;;;18.60;99.90;;;;;;5095432;28;20127;-90
2022/07/16 09:02:27;;;;;;;7.28;1.00;;;18.80;99.90;;;;;;5111957;28;20078;-91
2022/07/16 09:04:56;;;;;;;3.95;0.63;;;19.10;99.90;;;;;;5082027;28;20051;-91
2022/07/16 09:07:22;;;;;;;3.67;0.45;;;19.40;99.90;;;;;;5095191;28;20043;-91
2022/07/16 09:09:47;;;;;;;4.22;0.60;;;19.50;99.90;;;;;;5078094;28;20502;-90
2022/07/16 09:12:44;;;;;;;1.95;0.40;;;19.70;99.90;;;;;;5090526;28;20501;-88
2022/07/16 09:15:30;;;;;;;4.65;0.40;;;19.80;99.90;;;;;;5091972;28;20447;-87
2022/07/16 09:18:23;;;;;;;5.28;0.80;;;19.90;99.40;;;;;;5111049;28;20035;-87
2022/07/16 09:20:54;;;;;;;6.15;0.50;;;20.00;99.90;;;;;;5108794;28;20507;-87
2022/07/16 09:23:29;;;;;;;4.80;1.00;;;20.00;99.90;;;;;;5093791;28;20448;-87
2022/07/16 09:26:07;;;;;;;6.78;0.50;;;20.10;99.90;;;;;;5109278;28;20061;-87
2022/07/16 09:28:47;;;;;;;3.33;0.73;;;20.30;99.90;;;;;;5090220;28;20043;-85
2022/07/16 09:31:38;;;;;;;5.10;1.15;;;20.10;99.90;;;;;;5091922;28;20138;-86
2022/07/16 09:34:15;;;;;;;5.88;0.85;;;19.90;99.90;;;;;;5107982;28;20047;-84
2022/07/16 09:36:55;;;;;;;3.38;0.60;;;19.90;99.90;;;;;;5075927;28;20075;-85
2022/07/16 09:39:21;;;;;;;2.20;0.45;;;19.90;99.80;;;;;;5112929;28;20040;-89
2022/07/16 09:41:48;;;;;;;3.42;0.50;;;19.90;99.90;;;;;;5110539;28;20189;-89
2022/07/16 09:44:15;;;;;;;3.63;0.40;;;19.90;99.90;;;;;;5080836;28;20073;-87
2022/07/16 09:47:08;;;;;;;6.93;0.50;;;20.10;99.90;;;;;;5108932;28;20074;-90
2022/07/16 09:49:37;;;;;;;2.80;0.25;;;20.20;98.40;;;;;;5077962;28;20049;-90
2022/07/16 09:52:08;;;;;;;5.72;0.43;;;20.20;99.80;;;;;;5094779;28;20524;-90
2022/07/16 09:54:38;;;;;;;5.68;0.60;;;20.00;99.40;;;;;;5093079;28;20050;-90
2022/07/16 09:57:18;;;;;;;8.07;0.63;;;19.90;98.90;;;;;;5113944;28;20418;-90
2022/07/16 09:59:45;;;;;;;5.85;0.75;;;20.00;97.70;;;;;;5077402;28;20047;-90
2022/07/16 10:02:12;;;;;;;3.55;0.73;;;19.70;99.00;;;;;;5094182;28;20048;-90
2022/07/16 10:04:39;;;;;;;3.25;0.50;;;19.80;99.20;;;;;;5094345;28;20126;-91
2022/07/16 10:07:05;;;;;;;3.47;0.50;;;20.20;99.50;;;;;;5093538;28;20103;-91
2022/07/16 10:09:32;;;;;;;2.40;0.50;;;20.50;99.80;;;;;;5079312;28;20050;-89
2022/07/16 10:12:06;;;;;;;4.32;0.50;;;20.70;99.50;;;;;;5093680;28;20148;-90
2022/07/16 10:14:37;;;;;;;2.88;0.85;;;20.90;98.70;;;;;;5097988;28;20058;-92
2022/07/16 10:17:30;;;;;;;4.53;0.45;;;21.00;98.50;;;;;;5080053;28;20127;-91
2022/07/16 10:19:56;;;;;;;2.67;0.40;;;21.00;95.80;;;;;;5097281;28;20039;-91
2022/07/16 10:22:29;;;;;;;3.15;0.30;;;20.40;98.70;;;;;;5078137;28;20044;-90
2022/07/16 10:24:56;;;;;;;10.82;0.95;;;20.90;97.50;;;;;;5088959;28;20071;-92
2022/07/16 10:27:30;;;;;;;3.05;0.40;;;21.00;99.00;;;;;;5095116;28;20126;-91
2022/07/16 10:30:15;;;;;;;3.75;0.40;;;21.20;98.90;;;;;;5092047;28;20059;-90
2022/07/16 10:32:59;;;;;;;2.03;0.57;;;21.30;95.70;;;;;;5094520;28;20050;-91
2022/07/16 10:35:34;;;;;;;6.90;0.30;;;21.60;96.70;;;;;;5098386;28;20130;-90
2022/07/16 10:38:11;;;;;;;4.63;0.60;;;21.60;96.90;;;;;;5097676;28;20632;-91
2022/07/16 10:40:38;;;;;;;2.45;0.70;;;21.70;97.10;;;;;;5100582;28;20059;-91
2022/07/16 10:43:17;;;;;;;3.85;0.60;;;21.70;97.40;;;;;;5075067;28;20044;-91
2022/07/16 10:45:54;;;;;;;3.42;0.47;;;21.60;94.30;;;;;;5093456;28;20044;-91
2022/07/16 10:48:24;;;;;;;2.50;0.47;;;21.60;96.00;;;;;;5096330;28;20092;-91
2022/07/16 10:51:12;;;;;;;6.70;0.85;;;21.60;97.10;;;;;;5092917;28;20097;-91
2022/07/16 10:54:02;;;;;;;5.57;0.90;;;21.40;94.80;;;;;;5093611;28;20066;-91
2022/07/16 10:56:45;;;;;;;5.10;1.05;;;21.20;95.30;;;;;;5093162;28;20051;-91
2022/07/16 10:59:13;;;;;;;4.10;0.68;;;20.80;95.80;;;;;;5094458;28;20056;-89
2022/07/16 11:01:42;;;;;;;4.70;0.50;;;20.50;97.80;;;;;;5095486;28;20039;-90
2022/07/16 11:04:10;;;;;;;4.18;0.63;;;20.50;98.20;;;;;;5092626;28;20052;-90
2022/07/16 11:06:37;;;;;;;4.40;0.55;;;20.70;98.50;;;;;;5111895;28;20036;-90
2022/07/16 11:09:05;;;;;;;3.70;0.52;;;20.90;96.70;;;;;;5076939;28;20451;-91
2022/07/16 11:11:40;;;;;;;3.55;0.43;;;21.10;95.90;;;;;;5093474;28;20063;-90
2022/07/16 11:14:07;;;;;;;5.03;0.47;;;21.30;95.50;;;;;;5095125;28;20090;-90
2022/07/16 11:16:33;;;;;;;3.13;0.70;;;21.40;95.80;;;;;;5075263;28;20039;-91
2022/07/16 11:19:00;;;;;;;2.85;0.40;;;21.30;95.70;;;;;;5095828;28;20046;-89
2022/07/16 11:21:27;;;;;;;5.18;0.60;;;21.10;95.40;;;;;;5076453;28;20035;-91
2022/07/16 11:23:59;;;;;;;5.30;0.68;;;21.20;95.10;;;;;;5094238;28;20044;-91
2022/07/16 11:26:25;;;;;;;6.15;0.77;;;20.50;94.00;;;;;;5093804;28;20047;-90
2022/07/16 11:28:58;;;;;;;3.47;0.40;;;21.40;94.70;;;;;;5058629;28;20048;-90
2022/07/16 11:31:31;;;;;;;5.45;0.43;;;21.50;93.90;;;;;;5094330;28;20070;-90
2022/07/16 11:34:03;;;;;;;3.38;0.50;;;21.60;94.30;;;;;;5093788;28;20054;-91
2022/07/16 11:36:37;;;;;;;5.85;0.57;;;21.60;93.40;;;;;;5092840;28;20488;-91
2022/07/16 11:39:10;;;;;;;1.08;0.30;;;21.70;93.80;;;;;;5093384;28;20039;-90
2022/07/16 11:41:38;;;;;;;4.15;1.15;;;21.80;91.90;;;;;;5080366;28;20055;-91
2022/07/16 11:44:11;;;;;;;2.85;0.63;;;21.90;91.40;;;;;;5094535;28;20043;-92
2022/07/16 11:46:54;;;;;;;2.55;0.47;;;22.00;89.70;;;;;;5074712;28;20039;-91
2022/07/16 11:49:26;;;;;;;7.63;1.20;;;22.10;88.30;;;;;;5093393;28;20093;-90
2022/07/16 11:51:54;;;;;;;2.97;0.40;;;22.30;88.30;;;;;;5093057;28;20042;-91
2022/07/16 11:54:23;;;;;;;2.95;0.30;;;22.30;89.60;;;;;;5111244;28;20031;-92
2022/07/16 11:56:50;;;;;;;1.52;0.50;;;22.30;86.50;;;;;;5111807;28;20070;-91
2022/07/16 11:59:30;;;;;;;2.45;0.65;;;22.40;84.40;;;;;;5093177;28;20075;-90
2022/07/16 12:02:08;;;;;;;4.32;0.50;;;22.60;76.30;;;;;;5095293;28;20054;-90
2022/07/16 12:04:43;;;;;;;4.10;0.65;;;22.50;74.10;;;;;;5091846;28;20134;-91
2022/07/16 12:07:11;;;;;;;4.88;0.90;;;22.70;76.10;;;;;;5090704;28;20047;-91
2022/07/16 12:09:39;;;;;;;2.13;0.55;;;22.50;79.60;;;;;;5092483;28;20093;-91
2022/07/16 12:12:12;;;;;;;7.97;0.60;;;22.30;76.20;;;;;;5090298;28;20028;-90
2022/07/16 12:14:49;;;;;;;3.50;0.50;;;22.20;74.50;;;;;;5111164;28;20622;-91
2022/07/16 12:17:31;;;;;;;4.40;0.80;;;22.20;75.90;;;;;;5089925;28;20047;-88
2022/07/16 12:20:07;;;;;;;1.92;0.32;;;22.30;83.50;;;;;;5106296;28;21015;-87
2022/07/16 12:22:56;;;;;;;2.47;0.38;;;22.30;77.50;;;;;;5106435;28;20082;-87
2022/07/16 12:25:29;;;;;;;3.63;0.70;;;22.30;75.80;;;;;;5087417;28;20181;-87
2022/07/16 12:27:59;;;;;;;;;;;22.40;73.70;;;;;;5090411;28;20147;-85
2022/07/16 12:30:30;;;;;;;3.85;0.63;;;22.40;67.20;;;;;;5104967;28;19920;-87
2022/07/16 12:32:56;;;;;;;0.80;0.20;;;22.20;77.60;;;;;;5092660;28;21096;-87
2022/07/16 12:35:47;;;;;;;3.75;0.75;;;22.00;81.80;;;;;;5076038;28;20040;-87
2022/07/16 12:38:58;;;;;;;1.33;0.28;;;21.90;79.60;;;;;;5090139;28;20039;-87
2022/07/16 12:41:29;;;;;;;5.03;0.68;;;22.10;77.20;;;;;;5109684;28;20118;-87
2022/07/16 12:44:04;;;;;;;2.78;0.38;;;22.30;80.60;;;;;;5110427;28;20078;-88
2022/07/16 12:46:32;;;;;;;2.35;0.50;;;22.30;75.20;;;;;;5108966;28;20229;-87
2022/07/16 12:49:01;;;;;;;2.72;0.30;;;22.00;76.60;;;;;;5092782;28;20054;-87
2022/07/16 12:51:36;;;;;;;4.03;0.60;;;21.90;77.80;;;;;;5108125;28;20131;-87
2022/07/16 12:54:03;;;;;;;1.75;0.40;;;22.10;78.70;;;;;;5093496;28;20514;-88
2022/07/16 12:59:15;;;;;;;0.95;0.22;;;22.80;77.00;;;;;;5094943;28;20050;-87
2022/07/16 13:01:42;;;;;;;1.75;0.60;;;23.00;73.60;;;;;;5094742;28;20048;-85
2022/07/16 13:04:16;;;;;;;3.00;0.38;;;22.90;69.70;;;;;;5113244;28;20043;-88